sensor_id;sensor_type;location;lat;lon;timestamp;P1;durP1;ratioP1;P2;durP2;ratioP2
38252;SDS011;24785;52.372;20.672;2023-02-28T00:02:32;32.47;;;9.87;;
38252;SDS011;24785;52.372;20.672;2023-02-28T00:12:34;42.97;;;14.07;;
38252;SDS011;24785;52.372;20.672;2023-02-28T00:22:36;41.85;;;16.10;;
38252;SDS011;24785;52.372;20.672;2023-02-28T00:32:38;43.40;;;16.33;;
38252;SDS011;24785;52.372;20.672;2023-02-28T00:42:38;63.87;;;20.63;;
38252;SDS011;24785;52.372;20.672;2023-02-28T00:52:40;49.85;;;16.77;;
38252;SDS011;24785;52.372;20.672;2023-02-28T01:02:41;48.60;;;17.73;;
38252;SDS011;24785;52.372;20.672;2023-02-28T01:12:42;42.77;;;15.10;;
38252;SDS011;24785;52.372;20.672;2023-02-28T01:22:42;35.57;;;14.30;;
38252;SDS011;24785;52.372;20.672;2023-02-28T01:42:45;39.13;;;12.77;;
38252;SDS011;24785;52.372;20.672;2023-02-28T01:52:45;33.57;;;13.10;;
38252;SDS011;24785;52.372;20.672;2023-02-28T02:02:49;31.70;;;12.85;;
38252;SDS011;24785;52.372;20.672;2023-02-28T02:12:58;37.85;;;13.57;;
38252;SDS011;24785;52.372;20.672;2023-02-28T02:44:26;41.85;;;15.05;;
38252;SDS011;24785;52.372;20.672;2023-02-28T02:54:33;40.03;;;12.52;;
38252;SDS011;24785;52.372;20.672;2023-02-28T03:04:39;40.00;;;13.48;;
38252;SDS011;24785;52.372;20.672;2023-02-28T03:14:50;51.03;;;14.40;;
38252;SDS011;24785;52.372;20.672;2023-02-28T03:25:07;38.05;;;14.05;;
38252;SDS011;24785;52.372;20.672;2023-02-28T03:35:24;42.42;;;14.75;;
38252;SDS011;24785;52.372;20.672;2023-02-28T03:45:28;54.20;;;18.13;;
38252;SDS011;24785;52.372;20.672;2023-02-28T03:55:37;50.70;;;16.00;;
38252;SDS011;24785;52.372;20.672;2023-02-28T04:05:54;46.72;;;16.33;;
38252;SDS011;24785;52.372;20.672;2023-02-28T04:15:57;46.28;;;14.48;;
38252;SDS011;24785;52.372;20.672;2023-02-28T04:36:00;38.20;;;13.30;;
38252;SDS011;24785;52.372;20.672;2023-02-28T04:46:05;40.22;;;15.18;;
38252;SDS011;24785;52.372;20.672;2023-02-28T04:56:07;47.60;;;15.15;;
38252;SDS011;24785;52.372;20.672;2023-02-28T05:06:11;46.13;;;15.35;;
38252;SDS011;24785;52.372;20.672;2023-02-28T05:16:13;48.25;;;16.63;;
38252;SDS011;24785;52.372;20.672;2023-02-28T05:26:14;47.58;;;15.85;;
38252;SDS011;24785;52.372;20.672;2023-02-28T05:46:16;55.07;;;18.03;;
38252;SDS011;24785;52.372;20.672;2023-02-28T06:06:18;51.93;;;14.97;;
38252;SDS011;24785;52.372;20.672;2023-02-28T06:16:19;67.85;;;20.77;;
38252;SDS011;24785;52.372;20.672;2023-02-28T06:26:19;70.50;;;22.38;;
38252;SDS011;24785;52.372;20.672;2023-02-28T06:36:21;78.82;;;23.40;;
38252;SDS011;24785;52.372;20.672;2023-02-28T06:46:22;67.38;;;24.88;;
38252;SDS011;24785;52.372;20.672;2023-02-28T06:56:23;88.05;;;30.23;;
38252;SDS011;24785;52.372;20.672;2023-02-28T07:06:24;63.90;;;25.33;;
38252;SDS011;24785;52.372;20.672;2023-02-28T07:16:25;38.10;;;16.23;;
38252;SDS011;24785;52.372;20.672;2023-02-28T07:26:26;70.87;;;27.50;;
38252;SDS011;24785;52.372;20.672;2023-02-28T07:36:27;69.73;;;26.50;;
38252;SDS011;24785;52.372;20.672;2023-02-28T07:46:28;49.43;;;21.00;;
38252;SDS011;24785;52.372;20.672;2023-02-28T07:56:35;30.85;;;12.35;;
38252;SDS011;24785;52.372;20.672;2023-02-28T08:06:36;25.17;;;10.40;;
38252;SDS011;24785;52.372;20.672;2023-02-28T08:16:37;16.45;;;7.53;;
38252;SDS011;24785;52.372;20.672;2023-02-28T08:26:39;14.02;;;5.60;;
38252;SDS011;24785;52.372;20.672;2023-02-28T08:36:40;13.38;;;5.30;;
38252;SDS011;24785;52.372;20.672;2023-02-28T08:46:41;11.67;;;5.17;;
38252;SDS011;24785;52.372;20.672;2023-02-28T08:56:42;16.77;;;5.72;;
38252;SDS011;24785;52.372;20.672;2023-02-28T09:06:43;8.50;;;4.30;;
38252;SDS011;24785;52.372;20.672;2023-02-28T09:16:46;11.20;;;4.97;;
38252;SDS011;24785;52.372;20.672;2023-02-28T09:26:46;21.90;;;6.90;;
38252;SDS011;24785;52.372;20.672;2023-02-28T09:36:47;21.88;;;8.00;;
38252;SDS011;24785;52.372;20.672;2023-02-28T09:46:50;13.80;;;6.17;;
38252;SDS011;24785;52.372;20.672;2023-02-28T09:57:01;12.88;;;5.45;;
38252;SDS011;24785;52.372;20.672;2023-02-28T10:17:38;22.80;;;8.57;;
38252;SDS011;24785;52.372;20.672;2023-02-28T10:27:43;16.20;;;6.55;;
38252;SDS011;24785;52.372;20.672;2023-02-28T10:37:45;13.05;;;5.43;;
38252;SDS011;24785;52.372;20.672;2023-02-28T10:48:34;32.42;;;9.13;;
38252;SDS011;24785;52.372;20.672;2023-02-28T10:58:22;21.35;;;7.72;;
38252;SDS011;24785;52.372;20.672;2023-02-28T11:08:24;15.68;;;6.60;;
38252;SDS011;24785;52.372;20.672;2023-02-28T11:28:36;16.77;;;6.63;;
38252;SDS011;24785;52.372;20.672;2023-02-28T11:38:39;15.77;;;6.25;;
38252;SDS011;24785;52.372;20.672;2023-02-28T12:19:32;17.70;;;7.15;;
38252;SDS011;24785;52.372;20.672;2023-02-28T12:29:58;15.55;;;6.57;;
38252;SDS011;24785;52.372;20.672;2023-02-28T12:40:20;15.85;;;6.60;;
38252;SDS011;24785;52.372;20.672;2023-02-28T12:50:23;21.27;;;7.78;;
38252;SDS011;24785;52.372;20.672;2023-02-28T13:00:28;16.33;;;7.28;;
38252;SDS011;24785;52.372;20.672;2023-02-28T13:20:47;23.23;;;9.07;;
38252;SDS011;24785;52.372;20.672;2023-02-28T13:30:59;24.23;;;9.23;;
38252;SDS011;24785;52.372;20.672;2023-02-28T13:51:44;23.10;;;8.98;;
38252;SDS011;24785;52.372;20.672;2023-02-28T14:11:54;17.05;;;8.20;;
38252;SDS011;24785;52.372;20.672;2023-02-28T14:42:36;27.95;;;9.95;;
38252;SDS011;24785;52.372;20.672;2023-02-28T14:52:38;20.67;;;8.05;;
38252;SDS011;24785;52.372;20.672;2023-02-28T15:02:39;21.10;;;8.27;;
38252;SDS011;24785;52.372;20.672;2023-02-28T15:12:42;38.08;;;11.27;;
38252;SDS011;24785;52.372;20.672;2023-02-28T15:23:08;36.40;;;15.40;;
38252;SDS011;24785;52.372;20.672;2023-02-28T15:43:15;53.00;;;15.73;;
38252;SDS011;24785;52.372;20.672;2023-02-28T15:53:20;16.33;;;7.47;;
38252;SDS011;24785;52.372;20.672;2023-02-28T16:03:32;14.45;;;6.70;;
38252;SDS011;24785;52.372;20.672;2023-02-28T16:13:39;70.50;;;20.95;;
38252;SDS011;24785;52.372;20.672;2023-02-28T16:23:40;96.80;;;27.27;;
38252;SDS011;24785;52.372;20.672;2023-02-28T16:33:42;218.13;;;53.00;;
38252;SDS011;24785;52.372;20.672;2023-02-28T16:43:48;38.67;;;12.48;;
38252;SDS011;24785;52.372;20.672;2023-02-28T16:53:51;74.45;;;23.40;;
38252;SDS011;24785;52.372;20.672;2023-02-28T17:03:52;25.65;;;9.70;;
38252;SDS011;24785;52.372;20.672;2023-02-28T17:13:53;24.33;;;9.53;;
38252;SDS011;24785;52.372;20.672;2023-02-28T17:23:54;85.07;;;28.03;;
38252;SDS011;24785;52.372;20.672;2023-02-28T17:33:56;58.15;;;19.08;;
38252;SDS011;24785;52.372;20.672;2023-02-28T17:43:57;81.87;;;29.07;;
38252;SDS011;24785;52.372;20.672;2023-02-28T17:53:58;57.80;;;20.70;;
38252;SDS011;24785;52.372;20.672;2023-02-28T18:14:00;41.10;;;14.05;;
38252;SDS011;24785;52.372;20.672;2023-02-28T18:24:01;48.43;;;16.97;;
38252;SDS011;24785;52.372;20.672;2023-02-28T18:34:03;60.93;;;22.67;;
38252;SDS011;24785;52.372;20.672;2023-02-28T18:44:08;47.58;;;16.23;;
38252;SDS011;24785;52.372;20.672;2023-02-28T18:54:10;66.93;;;23.67;;
38252;SDS011;24785;52.372;20.672;2023-02-28T19:04:13;88.68;;;31.35;;
38252;SDS011;24785;52.372;20.672;2023-02-28T19:14:14;125.20;;;42.28;;
38252;SDS011;24785;52.372;20.672;2023-02-28T19:24:16;75.03;;;26.00;;
38252;SDS011;24785;52.372;20.672;2023-02-28T19:34:17;98.57;;;36.83;;
38252;SDS011;24785;52.372;20.672;2023-02-28T19:44:18;88.80;;;32.17;;
38252;SDS011;24785;52.372;20.672;2023-02-28T19:54:19;90.47;;;29.37;;
38252;SDS011;24785;52.372;20.672;2023-02-28T20:04:21;101.78;;;32.40;;
38252;SDS011;24785;52.372;20.672;2023-02-28T20:14:23;76.38;;;26.00;;
38252;SDS011;24785;52.372;20.672;2023-02-28T20:24:25;101.65;;;34.20;;
38252;SDS011;24785;52.372;20.672;2023-02-28T20:34:26;76.38;;;25.00;;
38252;SDS011;24785;52.372;20.672;2023-02-28T20:44:28;77.43;;;27.90;;
38252;SDS011;24785;52.372;20.672;2023-02-28T20:54:30;88.72;;;30.05;;
38252;SDS011;24785;52.372;20.672;2023-02-28T21:04:30;108.93;;;36.40;;
38252;SDS011;24785;52.372;20.672;2023-02-28T21:14:32;123.93;;;41.92;;
38252;SDS011;24785;52.372;20.672;2023-02-28T21:24:33;54.33;;;20.42;;
38252;SDS011;24785;52.372;20.672;2023-02-28T21:34:34;51.78;;;17.38;;
38252;SDS011;24785;52.372;20.672;2023-02-28T21:44:35;44.27;;;16.80;;
38252;SDS011;24785;52.372;20.672;2023-02-28T22:04:37;26.02;;;9.82;;
38252;SDS011;24785;52.372;20.672;2023-02-28T22:14:38;47.72;;;16.27;;
38252;SDS011;24785;52.372;20.672;2023-02-28T22:24:41;36.63;;;14.82;;
38252;SDS011;24785;52.372;20.672;2023-02-28T22:34:42;36.67;;;14.63;;
38252;SDS011;24785;52.372;20.672;2023-02-28T22:44:42;45.80;;;15.50;;
38252;SDS011;24785;52.372;20.672;2023-02-28T22:54:49;46.90;;;16.95;;
38252;SDS011;24785;52.372;20.672;2023-02-28T23:04:53;61.45;;;20.20;;
38252;SDS011;24785;52.372;20.672;2023-02-28T23:14:54;77.82;;;25.92;;
38252;SDS011;24785;52.372;20.672;2023-02-28T23:24:55;78.13;;;23.73;;
38252;SDS011;24785;52.372;20.672;2023-02-28T23:34:55;49.73;;;18.30;;
38252;SDS011;24785;52.372;20.672;2023-02-28T23:44:56;53.33;;;20.47;;
38252;SDS011;24785;52.372;20.672;2023-02-28T23:54:57;51.90;;;19.13;;
